Wadhurst, United Kingdom
Current Conditions -  °F | °C
As of 8:50 PM on Monday 20 Oct 2014 (Local Time) from EGKB Reporting Station
Clear Clear  
Wind Chill: 54°   Ceiling: Unl
Heat Index: 54°   Visibility: 6mi
Dew Point: 48°   Wind: 10mph
Humidity: 82%   Direction: 230°SW
Pressure: 29.94"   Gusts: NA
Location:  51.06°N, 0.34°E
Report Text: EGKB 201950Z 23009KT CAVOK 12/09 Q1014
Loading
Personal Weather Stations






























Interactive Weather Map
Tropical Storm Tracking
New forecast layout! Learn more

10-Day Weather Forecast

Advertisements
Track Severe Weather on mobile